Time;durP1;ratioP1;P1;durP2;ratioP2;P2;SDS_P1;SDS_P2;PMS_P1;PMS_P2;Temp;Humidity;BMP_temperature;BMP_pressure;BME280_temperature;BME280_humidity;BME280_pressure;Samples;Min_cycle;Max_cycle;Signal;HPM_P1;HPM_P2
2022/03/18 00:00:39;;;;;;;72.78;30.40;;;;;;;-0.24;100.00;102245.25;4421906;32;20097;-76
2022/03/18 00:03:07;;;;;;;68.50;29.75;;;;;;;-0.31;100.00;102245.66;4421788;32;20465;-76
2022/03/18 00:05:35;;;;;;;71.03;32.05;;;;;;;-0.43;100.00;102239.72;4421799;32;20144;-76
2022/03/18 00:08:04;;;;;;;100.53;44.65;;;;;;;-0.33;100.00;102249.84;4423660;32;20127;-76
2022/03/18 00:10:31;;;;;;;124.18;54.47;;;;;;;-0.18;100.00;102250.78;4424148;32;20140;-75
2022/03/18 00:12:59;;;;;;;123.97;54.88;;;;;;;-0.19;100.00;102245.53;4424135;32;20085;-76
2022/03/18 00:15:27;;;;;;;96.37;45.83;;;;;;;-0.10;100.00;102246.09;4424114;32;20093;-76
2022/03/18 00:17:56;;;;;;;96.60;43.60;;;;;;;-0.07;100.00;102261.81;4424081;32;20097;-76
2022/03/18 00:20:23;;;;;;;86.05;40.12;;;;;;;-0.10;100.00;102253.87;4424147;32;20082;-76
2022/03/18 00:22:51;;;;;;;80.28;38.67;;;;;;;-0.20;100.00;102256.69;4423718;32;20131;-76
2022/03/18 00:25:19;;;;;;;72.53;37.08;;;;;;;-0.15;100.00;102260.44;4424133;32;20124;-76
2022/03/18 00:27:47;;;;;;;66.65;33.15;;;;;;;-0.13;100.00;102259.75;4424018;32;20563;-76
2022/03/18 00:30:17;;;;;;;73.07;33.53;;;;;;;0.08;100.00;102256.69;4409766;32;20158;-76
2022/03/18 00:32:46;;;;;;;64.53;32.78;;;;;;;-0.08;100.00;102262.62;4424112;32;20107;-76
2022/03/18 00:35:34;;;;;;;63.13;30.55;;;;;;;-0.30;100.00;102261.28;4424047;32;20093;-76
2022/03/18 00:38:02;;;;;;;64.00;33.28;;;;;;;-0.30;100.00;102255.22;4424014;32;20097;-76
2022/03/18 00:40:31;;;;;;;67.30;31.67;;;;;;;-0.26;100.00;102267.56;4424029;32;20574;-76
2022/03/18 00:43:00;;;;;;;67.93;34.10;;;;;;;-0.13;100.00;102259.75;4423950;32;20089;-76
2022/03/18 00:45:29;;;;;;;68.95;32.55;;;;;;;-0.16;100.00;102258.66;4409861;32;20125;-76
2022/03/18 00:53:28;;;;;;;68.37;30.95;;;;;;;-0.15;100.00;102261.34;4423847;32;20445;-76
2022/03/18 00:55:56;;;;;;;67.47;33.00;;;;;;;-0.20;100.00;102269.66;4423823;32;20101;-76
2022/03/18 00:58:23;;;;;;;59.20;31.62;;;;;;;-0.27;100.00;102269.25;4423892;32;20184;-76
2022/03/18 01:00:50;;;;;;;61.58;32.00;;;;;;;-0.18;100.00;102279.28;4423705;32;20115;-76
2022/03/18 01:03:19;;;;;;;67.47;33.33;;;;;;;0.01;100.00;102275.25;4423818;32;20085;-76
2022/03/18 01:05:47;;;;;;;71.47;33.70;;;;;;;0.14;100.00;102270.91;4423662;32;20422;-76
2022/03/18 01:08:14;;;;;;;74.40;33.78;;;;;;;0.21;100.00;102273.06;4423747;32;20690;-76
2022/03/18 01:10:41;;;;;;;64.30;32.10;;;;;;;-0.07;100.00;102273.09;4423740;32;20085;-76
2022/03/18 01:13:08;;;;;;;70.10;33.45;;;;;;;-0.20;100.00;102270.53;4424005;32;20160;-76
2022/03/18 01:15:36;;;;;;;63.17;33.33;;;;;;;-0.41;100.00;102279.56;4423824;32;20128;-76
2022/03/18 01:18:03;;;;;;;66.07;31.75;;;;;;;-0.45;100.00;102275.00;4423344;32;20101;-76
2022/03/18 01:20:30;;;;;;;58.42;30.95;;;;;;;-0.54;100.00;102280.47;4423215;32;20410;-76
2022/03/18 01:22:57;;;;;;;64.93;30.23;;;;;;;-0.61;100.00;102286.94;4423553;32;20085;-76
2022/03/18 01:25:25;;;;;;;69.97;33.78;;;;;;;-0.62;100.00;102292.03;4423542;32;20112;-76
2022/03/18 01:27:52;;;;;;;84.03;36.88;;;;;;;-0.48;100.00;102280.87;4409424;32;20104;-76
2022/03/18 01:30:19;;;;;;;69.78;33.88;;;;;;;-0.43;100.00;102288.91;4423519;32;20164;-76
2022/03/18 01:32:47;;;;;;;75.68;36.85;;;;;;;-0.39;100.00;102285.72;4423581;32;20168;-76
2022/03/18 01:35:14;;;;;;;79.55;39.08;;;;;;;-0.45;100.00;102280.19;4423616;32;20476;-76
2022/03/18 01:37:41;;;;;;;78.05;36.33;;;;;;;-0.54;100.00;102281.37;4423562;32;20532;-76
2022/03/18 01:40:09;;;;;;;80.50;37.90;;;;;;;-0.49;100.00;102279.97;4423842;32;20772;-76
2022/03/18 01:42:37;;;;;;;74.60;35.90;;;;;;;-0.33;100.00;102294.78;4423553;32;20146;-76
2022/03/18 01:45:04;;;;;;;85.95;38.63;;;;;;;-0.54;100.00;102290.81;4423442;32;20124;-76
2022/03/18 01:47:32;;;;;;;82.18;41.95;;;;;;;-0.72;100.00;102294.03;4423481;32;20169;-76
2022/03/18 01:50:00;;;;;;;80.80;39.92;;;;;;;-0.89;100.00;102296.31;4423572;32;20093;-76
2022/03/18 01:52:27;;;;;;;94.10;40.40;;;;;;;-1.06;100.00;102296.12;4423512;32;20139;-76
2022/03/18 01:54:55;;;;;;;81.05;37.90;;;;;;;-1.05;100.00;102300.50;4423718;32;20089;-76
2022/03/18 01:57:26;;;;;;;86.12;40.12;;;;;;;-0.91;100.00;102297.94;4423438;32;20532;-76
2022/03/18 01:59:54;;;;;;;72.78;37.90;;;;;;;-0.93;100.00;102297.81;4423756;32;20131;-76
2022/03/18 02:02:22;;;;;;;90.12;42.35;;;;;;;-0.72;100.00;102296.62;4423399;32;20440;-76
2022/03/18 02:04:50;;;;;;;90.22;42.50;;;;;;;-0.60;100.00;102300.78;4423332;32;20572;-76
2022/03/18 02:07:18;;;;;;;88.05;39.75;;;;;;;-0.68;100.00;102302.88;4423363;32;20105;-76
2022/03/18 02:09:45;;;;;;;81.60;39.28;;;;;;;-0.85;100.00;102309.59;4423395;32;20185;-76
2022/03/18 02:12:12;;;;;;;86.53;40.85;;;;;;;-0.83;100.00;102312.25;4423379;32;20157;-76
2022/03/18 02:14:42;;;;;;;93.53;41.72;;;;;;;-0.75;100.00;102313.66;4423296;32;20151;-76
2022/03/18 02:17:11;;;;;;;94.43;44.17;;;;;;;-0.64;100.00;102315.22;4423282;32;20446;-76
2022/03/18 02:19:40;;;;;;;84.13;40.88;;;;;;;-0.54;100.00;102320.19;4423272;32;20150;-76
2022/03/18 02:22:15;;;;;;;95.07;43.50;;;;;;;-0.59;100.00;102319.03;4423254;32;20105;-76
2022/03/18 02:24:45;;;;;;;90.30;44.00;;;;;;;-0.50;100.00;102331.66;4423244;32;20156;-76
2022/03/18 02:27:12;;;;;;;88.65;43.95;;;;;;;-0.40;100.00;102328.84;4423347;32;20096;-76
2022/03/18 02:29:41;;;;;;;89.62;40.65;;;;;;;-0.36;100.00;102329.94;4422912;32;20120;-76
2022/03/18 02:32:10;;;;;;;86.57;39.53;;;;;;;-0.25;100.00;102324.66;4423296;32;20089;-76
2022/03/18 02:34:38;;;;;;;88.97;39.33;;;;;;;-0.31;100.00;102326.88;4423071;32;20093;-76
2022/03/18 02:37:07;;;;;;;87.30;39.75;;;;;;;-0.39;100.00;102327.16;4423083;32;20150;-76
2022/03/18 02:39:35;;;;;;;85.85;39.25;;;;;;;-0.46;100.00;102331.03;4423153;32;20128;-76
2022/03/18 02:42:02;;;;;;;84.70;37.92;;;;;;;-0.50;100.00;102335.13;4423049;32;20085;-76
2022/03/18 02:44:29;;;;;;;81.07;37.63;;;;;;;-0.47;100.00;102341.31;4422902;32;20096;-76
2022/03/18 02:46:58;;;;;;;82.78;37.33;;;;;;;-0.46;100.00;102336.22;4423053;32;20127;-76
2022/03/18 02:49:25;;;;;;;93.75;37.85;;;;;;;-0.52;100.00;102341.94;4422998;32;20176;-76
2022/03/18 02:51:53;;;;;;;73.00;36.88;;;;;;;-0.55;100.00;102346.91;4423007;32;20112;-76
2022/03/18 02:54:20;;;;;;;84.87;37.95;;;;;;;-0.45;100.00;102348.41;4422849;32;20173;-76
2022/03/18 02:56:49;;;;;;;77.28;37.20;;;;;;;-0.37;100.00;102351.47;4422952;32;20132;-76
2022/03/18 02:59:16;;;;;;;74.70;36.40;;;;;;;-0.39;100.00;102353.06;4422905;32;20108;-76
2022/03/18 03:01:44;;;;;;;79.90;36.92;;;;;;;-0.42;100.00;102355.47;4422873;32;20154;-76
2022/03/18 03:04:13;;;;;;;74.35;36.95;;;;;;;-0.54;100.00;102364.22;4408564;32;20120;-76
2022/03/18 03:09:27;;;;;;;73.53;36.80;;;;;;;-0.57;100.00;102361.44;4422666;32;20085;-76
2022/03/18 03:11:54;;;;;;;62.35;32.45;;;;;;;-0.47;100.00;102370.69;4422699;32;20454;-76
2022/03/18 03:14:22;;;;;;;66.40;33.17;;;;;;;-0.26;100.00;102372.06;4422889;32;20089;-76
2022/03/18 03:16:49;;;;;;;61.28;31.50;;;;;;;-0.05;100.00;102376.81;4422668;32;20436;-76
2022/03/18 03:19:16;;;;;;;55.65;30.42;;;;;;;-0.06;100.00;102375.03;4422649;32;20158;-76
2022/03/18 03:21:43;;;;;;;62.25;30.15;;;;;;;0.01;100.00;102384.09;4422910;32;20180;-76
2022/03/18 03:24:11;;;;;;;59.75;29.20;;;;;;;0.02;100.00;102389.37;4422304;32;20209;-76
2022/03/18 03:26:38;;;;;;;55.55;28.25;;;;;;;0.08;100.00;102384.59;4422444;32;20124;-76
2022/03/18 03:29:05;;;;;;;55.92;27.80;;;;;;;0.13;100.00;102384.84;4422416;32;20085;-76
2022/03/18 03:31:33;;;;;;;48.17;24.83;;;;;;;0.16;98.92;102388.53;4422655;32;20089;-76
2022/03/18 03:34:00;;;;;;;49.22;25.02;;;;;;;0.16;97.58;102403.19;4422230;32;20176;-76
2022/03/18 03:36:28;;;;;;;44.67;22.00;;;;;;;0.24;95.58;102401.97;4422337;32;20097;-76
2022/03/18 03:38:55;;;;;;;45.97;22.73;;;;;;;0.31;92.73;102405.84;4422490;32;20090;-76
2022/03/18 03:41:23;;;;;;;43.50;23.08;;;;;;;0.36;91.53;102417.41;4422274;32;20097;-76
2022/03/18 03:43:50;;;;;;;48.78;22.33;;;;;;;0.44;90.44;102421.38;4424304;32;20101;-76
2022/03/18 03:46:17;;;;;;;47.13;22.30;;;;;;;0.46;89.14;102424.97;4424366;32;20557;-76
2022/03/18 03:48:45;;;;;;;41.25;21.05;;;;;;;0.47;88.72;102430.22;4424460;32;20146;-76
2022/03/18 03:51:12;;;;;;;37.22;19.87;;;;;;;0.52;88.59;102432.22;4410028;32;20085;-76
2022/03/18 03:53:39;;;;;;;39.10;21.70;;;;;;;0.63;88.30;102433.75;4424357;32;20101;-76
2022/03/18 03:56:06;;;;;;;42.40;21.15;;;;;;;0.73;87.12;102441.31;4409850;32;20606;-76
2022/03/18 03:58:33;;;;;;;39.78;20.35;;;;;;;0.90;86.00;102445.81;4424194;32;20132;-76
2022/03/18 04:01:01;;;;;;;44.65;20.40;;;;;;;1.06;84.68;102458.03;4424231;32;20516;-76
2022/03/18 04:03:28;;;;;;;36.85;18.62;;;;;;;1.18;83.17;102450.06;4424266;32;20157;-76
2022/03/18 04:05:55;;;;;;;36.08;18.45;;;;;;;1.35;81.00;102448.47;4424088;32;20829;-76
2022/03/18 04:08:23;;;;;;;38.45;18.67;;;;;;;1.36;80.37;102456.34;4424345;32;20088;-76
2022/03/18 04:10:54;;;;;;;33.40;18.02;;;;;;;1.39;80.26;102450.44;4424187;32;20138;-76
2022/03/18 04:13:21;;;;;;;35.42;19.45;;;;;;;1.46;78.55;102454.28;4424261;32;20121;-76
2022/03/18 04:15:48;;;;;;;33.83;18.42;;;;;;;1.39;79.38;102453.03;4424140;32;20093;-76
2022/03/18 04:18:16;;;;;;;37.15;18.42;;;;;;;1.32;79.50;102464.75;4424133;32;20077;-76
2022/03/18 04:20:43;;;;;;;34.03;18.05;;;;;;;1.38;77.48;102466.84;4420767;32;106468;-76
2022/03/18 04:23:10;;;;;;;35.13;17.77;;;;;;;1.38;76.83;102467.72;4423840;32;20479;-76
2022/03/18 04:25:40;;;;;;;35.97;18.92;;;;;;;1.42;77.14;102474.91;4423906;32;20161;-76
2022/03/18 04:28:07;;;;;;;42.88;17.90;;;;;;;1.49;76.71;102467.47;4424046;32;20093;-76
2022/03/18 04:30:34;;;;;;;35.67;17.80;;;;;;;1.53;77.74;102477.22;4424094;32;20085;-76
2022/03/18 04:33:02;;;;;;;37.15;16.25;;;;;;;1.50;76.83;102477.03;4424191;32;20476;-76
2022/03/18 04:35:31;;;;;;;35.50;18.58;;;;;;;1.56;76.26;102480.00;4423960;32;20123;-76
2022/03/18 04:37:59;;;;;;;39.80;19.37;;;;;;;1.52;78.26;102475.41;4424064;32;20085;-76
2022/03/18 04:40:27;;;;;;;42.60;18.77;;;;;;;1.50;78.34;102484.84;4423955;32;20153;-76
2022/03/18 04:42:55;;;;;;;36.78;17.55;;;;;;;1.51;76.27;102484.03;4423954;32;20157;-76
2022/03/18 04:45:23;;;;;;;34.58;18.02;;;;;;;1.58;75.62;102487.06;4423817;32;20098;-76
2022/03/18 04:47:56;;;;;;;34.13;17.42;;;;;;;1.58;75.86;102496.56;4423914;32;20109;-76
2022/03/18 04:50:23;;;;;;;37.90;17.50;;;;;;;1.58;76.04;102492.25;4424016;32;20085;-77
2022/03/18 04:52:50;;;;;;;31.42;17.58;;;;;;;1.62;75.31;102502.03;4423601;32;20387;-77
2022/03/18 04:55:18;;;;;;;39.88;18.45;;;;;;;1.68;74.23;102510.19;4423832;32;20155;-76
2022/03/18 04:57:45;;;;;;;41.65;17.02;;;;;;;1.71;73.61;102503.38;4424144;32;20881;-77
2022/03/18 05:00:13;;;;;;;43.95;15.75;;;;;;;1.83;72.89;102514.47;4429616;32;20812;-76
2022/03/18 05:02:41;;;;;;;34.67;16.17;;;;;;;1.89;70.86;102523.53;4433195;32;20124;-78
2022/03/18 05:05:10;;;;;;;27.67;14.60;;;;;;;1.92;69.94;102520.22;4440021;32;20148;-78
2022/03/18 05:07:40;;;;;;;30.83;15.80;;;;;;;1.94;68.90;102528.09;4425770;32;20101;-78
2022/03/18 05:10:09;;;;;;;32.22;14.87;;;;;;;2.00;68.87;102533.66;4424638;32;20129;-76
2022/03/18 05:12:36;;;;;;;25.65;13.60;;;;;;;2.01;67.97;102530.22;4424560;32;20123;-75
2022/03/18 05:15:04;;;;;;;24.83;13.07;;;;;;;2.05;67.29;102538.31;4424705;32;20136;-76
2022/03/18 05:17:31;;;;;;;25.50;13.27;;;;;;;2.19;66.09;102549.50;4424595;32;20085;-77
2022/03/18 05:20:01;;;;;;;25.62;12.95;;;;;;;2.31;65.91;102539.78;4424604;32;20141;-77
2022/03/18 05:22:28;;;;;;;27.40;12.88;;;;;;;2.37;62.04;102540.12;4421168;32;20109;-76
2022/03/18 05:24:57;;;;;;;33.17;13.73;;;;;;;2.30;61.91;102538.00;4439963;32;20084;-78
2022/03/18 05:27:25;;;;;;;27.30;12.93;;;;;;;2.30;61.93;102542.31;4439955;32;20077;-78
2022/03/18 05:29:53;;;;;;;39.58;12.95;;;;;;;2.30;60.48;102540.59;4425882;32;20491;-77
2022/03/18 05:32:21;;;;;;;24.50;11.90;;;;;;;2.38;60.49;102534.13;4439837;32;20089;-77
2022/03/18 05:34:48;;;;;;;24.35;12.23;;;;;;;2.31;58.97;102539.78;4439997;32;20526;-77
2022/03/18 05:37:16;;;;;;;24.23;11.82;;;;;;;2.35;59.94;102544.34;4439827;32;20469;-77
2022/03/18 05:39:43;;;;;;;28.52;11.30;;;;;;;2.31;58.57;102544.09;4439904;32;20553;-77
2022/03/18 05:42:10;;;;;;;28.10;12.73;;;;;;;2.39;58.46;102550.62;4439870;32;20124;-76
2022/03/18 05:44:37;;;;;;;22.87;11.77;;;;;;;2.42;57.46;102550.78;4425326;32;20101;-77
2022/03/18 05:47:05;;;;;;;28.50;13.32;;;;;;;2.46;58.23;102552.75;4439899;32;20081;-77
2022/03/18 05:49:32;;;;;;;21.83;11.77;;;;;;;2.50;57.41;102559.91;4439530;32;20088;-77
2022/03/18 05:51:59;;;;;;;24.10;11.50;;;;;;;2.55;56.74;102552.37;4439831;32;20748;-77
2022/03/18 05:54:27;;;;;;;23.75;12.27;;;;;;;2.51;56.06;102561.72;4439690;32;20127;-77
2022/03/18 05:56:54;;;;;;;22.65;11.50;;;;;;;2.50;57.36;102559.03;4439853;32;20088;-76
2022/03/18 05:59:28;;;;;;;22.98;11.15;;;;;;;2.59;56.48;102569.97;4439773;32;20092;-76
2022/03/18 06:02:00;;;;;;;25.45;12.18;;;;;;;2.68;56.24;102575.66;4439543;32;20772;-76
2022/03/18 06:04:28;;;;;;;18.58;10.05;;;;;;;2.84;56.41;102578.28;4438944;32;20138;-77
2022/03/18 06:06:56;;;;;;;22.92;10.88;;;;;;;2.83;53.71;102579.13;4439121;32;20089;-77
2022/03/18 06:12:09;;;;;;;19.65;9.95;;;;;;;2.81;54.48;102587.66;4422868;32;20245;-77
2022/03/18 06:14:37;;;;;;;19.60;10.20;;;;;;;2.92;54.74;102581.31;4424000;32;20097;-77
2022/03/18 06:17:05;;;;;;;17.48;10.23;;;;;;;2.97;53.28;102586.75;4438296;32;20100;-77
2022/03/18 06:19:34;;;;;;;21.87;10.35;;;;;;;2.95;52.86;102588.41;4426039;32;20502;-77
2022/03/18 06:22:02;;;;;;;19.42;10.10;;;;;;;3.03;53.29;102594.91;4409546;32;20519;-78
2022/03/18 06:24:29;;;;;;;23.50;10.07;;;;;;;3.24;52.55;102598.66;4423390;32;20535;-78
2022/03/18 06:26:58;;;;;;;15.95;9.70;;;;;;;3.31;51.57;102597.28;4423654;32;20089;-78
2022/03/18 06:29:27;;;;;;;22.25;10.27;;;;;;;3.17;52.29;102598.28;4439096;32;20085;-77
2022/03/18 06:31:55;;;;;;;20.40;9.77;;;;;;;3.25;53.23;102597.88;4439091;32;20089;-77
2022/03/18 06:34:23;;;;;;;21.80;10.48;;;;;;;3.40;51.74;102604.72;4424705;32;20169;-77
2022/03/18 06:36:53;;;;;;;25.52;10.05;;;;;;;3.40;52.17;102602.13;4423982;32;20076;-77
2022/03/18 06:39:22;;;;;;;25.12;10.63;;;;;;;3.54;52.18;102611.56;4438805;32;20181;-79
2022/03/18 06:41:49;;;;;;;37.30;12.05;;;;;;;3.64;52.36;102613.81;4438948;32;20093;-78
2022/03/18 06:44:17;;;;;;;25.80;10.73;;;;;;;3.54;50.81;102607.22;4439130;32;20505;-76
2022/03/18 06:46:44;;;;;;;20.15;10.70;;;;;;;3.65;51.69;102615.63;4439166;32;20085;-77
2022/03/18 06:49:13;;;;;;;30.45;11.80;;;;;;;3.75;50.04;102615.28;4439045;32;20153;-78
2022/03/18 06:51:40;;;;;;;24.25;10.85;;;;;;;3.77;50.08;102615.34;4438923;32;20124;-77
2022/03/18 06:54:08;;;;;;;30.67;10.90;;;;;;;3.87;49.74;102621.94;4438668;32;20127;-78
2022/03/18 06:56:38;;;;;;;25.77;10.32;;;;;;;3.80;50.47;102618.09;4438451;32;20559;-77
2022/03/18 06:59:05;;;;;;;21.50;10.32;;;;;;;3.78;50.24;102620.66;4438851;32;20172;-76
2022/03/18 07:01:33;;;;;;;23.80;9.43;;;;;;;3.87;50.55;102625.44;4438899;32;20100;-77
2022/03/18 07:04:01;;;;;;;15.85;9.32;;;;;;;3.87;49.48;102627.16;4438663;32;20207;-76
2022/03/18 07:06:28;;;;;;;19.98;8.63;;;;;;;3.90;49.27;102632.53;4438825;32;20120;-75
2022/03/18 07:08:55;;;;;;;19.20;10.05;;;;;;;3.90;49.42;102636.03;4438982;32;20093;-76
2022/03/18 07:11:23;;;;;;;30.48;12.40;;;;;;;4.01;50.05;102633.97;4438734;32;20177;-76
2022/03/18 07:13:50;;;;;;;27.62;12.80;;;;;;;4.04;49.97;102636.72;4438701;32;20152;-77
2022/03/18 07:19:04;;;;;;;25.98;9.68;;;;;;;4.32;49.89;102632.06;4440423;32;20073;-76
2022/03/18 07:21:33;;;;;;;18.77;10.38;;;;;;;4.39;49.15;102645.44;4440574;32;20101;-77
2022/03/18 07:24:01;;;;;;;31.45;10.75;;;;;;;4.31;49.85;102648.56;4440660;32;20158;-76
2022/03/18 07:26:28;;;;;;;21.60;10.25;;;;;;;4.59;49.01;102646.41;4426127;32;20152;-76
2022/03/18 07:28:56;;;;;;;19.60;9.77;;;;;;;4.55;49.07;102645.34;4440305;32;20122;-76
2022/03/18 07:31:23;;;;;;;29.37;10.73;;;;;;;4.71;48.39;102655.72;4436920;32;20208;-76
2022/03/18 07:33:52;;;;;;;25.55;12.35;;;;;;;4.75;48.81;102664.63;4425080;32;20223;-75
2022/03/18 07:36:20;;;;;;;24.92;13.65;;;;;;;4.67;48.66;102668.56;4426530;32;20128;-75
2022/03/18 07:38:47;;;;;;;26.12;9.55;;;;;;;4.63;49.44;102671.84;4440557;32;20126;-76
2022/03/18 07:41:17;;;;;;;18.08;9.65;;;;;;;4.59;48.79;102670.78;4440340;32;20532;-76
2022/03/18 07:43:44;;;;;;;31.75;10.80;;;;;;;4.64;49.36;102671.03;4440680;32;20178;-77
2022/03/18 07:46:11;;;;;;;41.58;10.60;;;;;;;4.63;49.54;102670.16;4440647;32;20073;-75
2022/03/18 07:48:42;;;;;;;20.40;10.68;;;;;;;4.63;49.71;102672.75;4440325;32;20152;-76
2022/03/18 07:51:09;;;;;;;25.45;10.48;;;;;;;4.84;49.28;102682.44;4440484;32;20497;-75
2022/03/18 07:53:36;;;;;;;22.62;11.12;;;;;;;4.87;50.15;102685.19;4440478;32;20097;-76
2022/03/18 07:56:04;;;;;;;23.17;11.18;;;;;;;5.03;49.61;102683.41;4440127;32;20111;-76
2022/03/18 07:58:31;;;;;;;23.92;10.73;;;;;;;5.28;49.13;102695.91;4440272;32;20101;-75
2022/03/18 08:00:59;;;;;;;20.58;11.40;;;;;;;5.17;49.07;102693.63;4440242;32;20114;-75
2022/03/18 08:03:26;;;;;;;27.75;10.70;;;;;;;5.20;48.47;102692.03;4440069;32;20105;-76
2022/03/18 08:05:53;;;;;;;35.45;11.80;;;;;;;5.19;49.36;102692.84;4425276;32;20114;-75
2022/03/18 08:08:20;;;;;;;22.02;11.60;;;;;;;5.22;49.33;102693.00;4424940;32;20101;-75
2022/03/18 08:10:49;;;;;;;22.35;12.40;;;;;;;5.18;49.46;102705.84;4423932;32;20102;-76
2022/03/18 08:13:17;;;;;;;31.33;11.20;;;;;;;5.24;49.14;102696.59;4423746;32;20163;-75
2022/03/18 08:15:44;;;;;;;23.50;11.40;;;;;;;5.08;49.17;102704.50;4424557;32;20150;-77
2022/03/18 08:18:12;;;;;;;39.30;12.35;;;;;;;5.19;49.40;102699.78;4424824;32;20090;-78
2022/03/18 08:20:40;;;;;;;23.33;11.60;;;;;;;5.34;48.96;102708.37;4424800;32;20109;-77
2022/03/18 08:23:09;;;;;;;23.48;11.85;;;;;;;5.47;49.95;102699.34;4424881;32;20139;-76
2022/03/18 08:25:37;;;;;;;24.58;12.55;;;;;;;5.76;49.13;102711.16;4432425;32;20112;-76
2022/03/18 08:28:05;;;;;;;27.52;12.30;;;;;;;5.95;48.86;102712.91;4424724;32;20109;-77
2022/03/18 08:30:36;;;;;;;33.80;14.30;;;;;;;5.77;49.01;102714.69;4421844;32;20143;-75
2022/03/18 08:33:04;;;;;;;27.67;12.90;;;;;;;6.09;48.54;102713.53;4440148;32;20168;-76
2022/03/18 08:35:31;;;;;;;24.30;12.15;;;;;;;6.12;47.93;102717.16;4440391;32;20141;-77
2022/03/18 08:37:59;;;;;;;41.42;13.98;;;;;;;6.17;47.87;102722.59;4440204;32;20154;-76
2022/03/18 08:40:34;;;;;;;26.90;12.50;;;;;;;6.20;47.55;102727.97;4439899;32;20299;-76
2022/03/18 08:43:04;;;;;;;23.27;12.65;;;;;;;6.40;47.58;102720.97;4427786;32;20177;-76
2022/03/18 08:45:32;;;;;;;22.67;12.25;;;;;;;6.48;47.53;102730.06;4426647;32;20089;-76
2022/03/18 08:47:59;;;;;;;36.92;13.90;;;;;;;6.92;47.40;102728.37;4426100;32;20127;-76
2022/03/18 08:50:27;;;;;;;27.08;12.20;;;;;;;6.81;45.55;102734.91;4430813;32;20105;-76
2022/03/18 08:52:56;;;;;;;23.40;12.20;;;;;;;6.97;45.74;102734.72;4432133;32;20169;-75
2022/03/18 08:55:25;;;;;;;36.28;13.77;;;;;;;7.58;44.94;102738.84;4431770;32;20794;-76
2022/03/18 08:57:52;;;;;;;24.67;13.45;;;;;;;7.67;44.91;102739.19;4436742;32;20496;-75
2022/03/18 09:00:20;;;;;;;27.23;12.60;;;;;;;7.77;44.86;102735.16;4415023;32;20120;-75
2022/03/18 09:02:48;;;;;;;28.10;13.50;;;;;;;7.74;44.91;102732.41;4424573;32;20097;-76
2022/03/18 09:05:16;;;;;;;32.97;14.13;;;;;;;7.80;45.20;102746.66;4426534;32;20484;-75
2022/03/18 09:07:44;;;;;;;29.55;14.32;;;;;;;8.06;44.23;102738.87;4424695;32;20165;-75
2022/03/18 09:10:12;;;;;;;29.02;13.18;;;;;;;8.30;43.45;102749.34;4439541;32;20757;-76
2022/03/18 09:12:52;;;;;;;27.73;13.15;;;;;;;8.35;43.88;102750.41;4440081;32;20123;-74
2022/03/18 09:15:19;;;;;;;41.88;15.95;;;;;;;8.32;45.51;102748.56;4439877;32;20077;-75
2022/03/18 09:17:46;;;;;;;55.00;14.55;;;;;;;8.12;45.24;102755.72;4439908;32;20093;-75
2022/03/18 09:20:13;;;;;;;31.33;13.85;;;;;;;8.24;45.13;102755.28;4434644;32;20170;-74
2022/03/18 09:22:41;;;;;;;29.23;14.40;;;;;;;8.20;44.98;102760.34;4416035;32;20149;-75
2022/03/18 09:25:08;;;;;;;30.25;14.95;;;;;;;8.49;44.54;102758.81;4432200;32;20084;-76
2022/03/18 09:27:36;;;;;;;32.45;15.05;;;;;;;8.78;44.77;102759.81;4431582;32;20158;-76
2022/03/18 09:30:09;;;;;;;31.87;14.87;;;;;;;8.96;43.87;102760.41;4425479;32;20093;-77
2022/03/18 09:32:40;;;;;;;29.35;14.73;;;;;;;8.85;51.45;102767.94;4426302;32;20101;-78
2022/03/18 09:35:12;;;;;;;35.78;15.60;;;;;;;9.06;45.17;102758.97;4424426;32;20077;-76
2022/03/18 09:37:41;;;;;;;29.10;13.70;;;;;;;9.34;46.31;102756.38;4434623;32;20076;-76
2022/03/18 09:40:09;;;;;;;26.48;14.30;;;;;;;9.93;44.73;102752.84;4438319;32;20097;-75
2022/03/18 09:43:05;;;;;;;36.70;15.70;;;;;;;9.51;45.19;102753.38;4419058;32;20168;-75
2022/03/18 09:45:35;;;;;;;26.90;14.55;;;;;;;9.68;43.55;102756.50;4406593;32;20081;-75
2022/03/18 09:48:09;;;;;;;33.15;15.45;;;;;;;9.64;44.15;102760.78;4430600;32;20119;-75
2022/03/18 09:50:42;;;;;;;26.87;14.65;;;;;;;9.53;47.21;102763.09;4428132;32;20097;-74
2022/03/18 09:53:15;;;;;;;32.25;14.87;;;;;;;9.94;43.58;102750.25;4423078;32;20162;-73
2022/03/18 09:55:42;;;;;;;29.98;15.07;;;;;;;10.08;45.19;102749.78;4430375;32;20145;-72
2022/03/18 09:58:11;;;;;;;32.40;15.82;;;;;;;10.38;43.02;102755.00;4432380;32;20093;-72
2022/03/18 10:00:38;;;;;;;37.35;15.80;;;;;;;10.17;44.48;102755.28;4438179;32;20472;-72
2022/03/18 10:03:07;;;;;;;34.53;16.62;;;;;;;10.33;44.89;102768.06;4432705;32;20173;-73
2022/03/18 10:05:35;;;;;;;39.90;15.88;;;;;;;10.53;42.50;102765.97;4416214;32;20093;-73
2022/03/18 10:08:03;;;;;;;32.65;15.82;;;;;;;10.82;42.20;102774.63;4425734;32;20089;-75
2022/03/18 10:10:44;;;;;;;34.08;16.35;;;;;;;10.68;42.50;102766.38;4430417;32;20204;-74
2022/03/18 10:13:12;;;;;;;43.70;17.05;;;;;;;10.60;45.24;102769.63;4439473;32;20089;-72
2022/03/18 10:15:40;;;;;;;27.90;15.85;;;;;;;10.94;43.51;102774.94;4432897;32;20187;-73
2022/03/18 10:18:12;;;;;;;27.13;15.88;;;;;;;11.38;42.73;102766.31;4435391;32;20146;-74
2022/03/18 10:20:42;;;;;;;36.78;16.25;;;;;;;11.09;43.23;102776.16;4427909;32;20120;-74
2022/03/18 10:23:15;;;;;;;33.05;16.27;;;;;;;11.87;42.98;102764.75;4432021;32;20523;-74
2022/03/18 10:25:50;;;;;;;33.92;17.17;;;;;;;11.88;43.10;102758.63;4435510;32;20120;-74
2022/03/18 10:28:43;;;;;;;31.23;16.60;;;;;;;11.92;41.95;102761.34;4427560;32;20535;-73
2022/03/18 10:31:21;;;;;;;29.12;15.25;;;;;;;12.10;40.38;102765.22;4436118;32;20162;-74
2022/03/18 10:39:34;;;;;;;33.50;16.52;;;;;;;11.95;40.26;102761.41;4431587;32;20140;-75
2022/03/18 10:42:05;;;;;;;30.33;17.08;;;;;;;12.18;40.62;102768.91;4439379;32;20081;-76
2022/03/18 10:44:45;;;;;;;31.30;18.08;;;;;;;12.38;43.51;102766.66;4436765;32;20101;-75
2022/03/18 10:47:31;;;;;;;40.28;16.95;;;;;;;12.46;41.95;102769.44;4430809;32;20148;-75
2022/03/18 10:50:10;;;;;;;32.55;17.17;;;;;;;11.62;45.03;102774.75;4433998;32;20169;-75
2022/03/18 10:52:47;;;;;;;28.17;16.25;;;;;;;11.98;45.04;102759.69;4432965;32;20109;-74
2022/03/18 10:55:36;;;;;;;31.75;17.17;;;;;;;12.62;43.40;102771.50;4423666;32;20120;-75
2022/03/18 10:58:08;;;;;;;33.90;17.60;;;;;;;12.14;44.05;102767.06;4423491;32;20453;-75
2022/03/18 11:00:37;;;;;;;31.75;17.37;;;;;;;12.35;43.12;102767.47;4424426;32;20151;-75
2022/03/18 11:03:05;;;;;;;35.63;16.45;;;;;;;12.99;41.84;102766.84;4429347;32;20152;-75
2022/03/18 11:05:38;;;;;;;32.85;17.45;;;;;;;13.32;41.42;102766.50;4430576;32;20135;-76
2022/03/18 11:08:09;;;;;;;30.70;16.35;;;;;;;13.59;40.00;102763.34;4431570;32;20160;-75
2022/03/18 11:13:29;;;;;;;28.08;16.90;;;;;;;12.53;41.28;102766.94;4430737;32;20158;-74
2022/03/18 11:15:57;;;;;;;35.20;18.05;;;;;;;12.33;41.99;102763.94;4429433;32;20112;-74
2022/03/18 11:18:27;;;;;;;36.42;17.50;;;;;;;12.26;41.82;102767.31;4430958;32;20159;-75
2022/03/18 11:20:57;;;;;;;35.85;18.25;;;;;;;12.80;41.96;102760.34;4431131;32;20105;-74
2022/03/18 11:23:25;;;;;;;33.00;17.20;;;;;;;13.15;41.52;102755.63;4428390;32;20101;-75
2022/03/18 11:26:00;;;;;;;40.00;17.65;;;;;;;13.66;40.02;102753.75;4429871;32;20127;-77
2022/03/18 11:28:29;;;;;;;31.25;17.67;;;;;;;12.72;42.50;102757.59;4428859;32;20941;-75
2022/03/18 11:31:03;;;;;;;30.27;17.02;;;;;;;13.02;40.96;102759.84;4428224;32;20109;-74
2022/03/18 11:33:30;;;;;;;31.30;16.58;;;;;;;13.13;40.91;102760.88;4429208;32;20093;-75
2022/03/18 11:36:00;;;;;;;32.15;16.80;;;;;;;13.09;41.66;102763.47;4430628;32;20233;-75
2022/03/18 11:39:07;;;;;;;33.20;16.23;;;;;;;13.99;39.39;102755.91;4422080;32;20132;-73
2022/03/18 11:42:03;;;;;;;28.40;16.70;;;;;;;14.87;37.53;102755.94;4407935;32;20483;-75